createdAt,value
2022-10-23T00:02:40.282Z,8.70
2022-10-23T00:05:43.726Z,8.02
2022-10-23T00:08:48.046Z,8.27
2022-10-23T00:11:51.859Z,8.95
2022-10-23T00:14:56.195Z,8.10
2022-10-23T00:17:59.087Z,7.97
2022-10-23T00:21:02.448Z,8.63
2022-10-23T00:24:06.813Z,7.43
2022-10-23T00:27:09.529Z,7.93
2022-10-23T00:30:14.046Z,8.07
2022-10-23T00:33:16.670Z,8.73
2022-10-23T00:36:21.607Z,8.93
2022-10-23T00:39:24.316Z,8.65
2022-10-23T00:42:28.348Z,8.95
2022-10-23T00:45:33.547Z,8.15
2022-10-23T00:48:36.589Z,8.32
2022-10-23T00:51:46.587Z,8.27
2022-10-23T00:57:52.691Z,8.02
2022-10-23T01:00:57.022Z,9.02
2022-10-23T01:04:01.415Z,9.40
2022-10-23T01:07:15.452Z,8.75
2022-10-23T01:10:27.109Z,9.50
2022-10-23T01:13:51.073Z,8.65
2022-10-23T01:17:02.812Z,8.98
2022-10-23T01:20:25.424Z,8.50
2022-10-23T01:23:38.085Z,8.88
2022-10-23T01:26:46.818Z,8.50
2022-10-23T01:30:16.278Z,8.98
2022-10-23T01:33:28.542Z,8.65
2022-10-23T01:36:34.283Z,9.20
2022-10-23T01:39:41.383Z,9.63
2022-10-23T01:42:49.849Z,9.32
2022-10-23T01:45:58.392Z,9.27
2022-10-23T01:49:03.746Z,10.15
2022-10-23T01:52:11.725Z,8.05
2022-10-23T01:55:15.742Z,9.02
2022-10-23T01:58:21.225Z,8.40
2022-10-23T02:01:27.768Z,8.57
2022-10-23T02:04:36.774Z,8.15
2022-10-23T02:07:40.074Z,7.90
2022-10-23T02:11:04.936Z,8.20
2022-10-23T02:14:23.646Z,9.15
2022-10-23T02:17:36.125Z,8.93
2022-10-23T02:24:12.263Z,7.97
2022-10-23T02:27:28.904Z,8.45
2022-10-23T02:30:35.793Z,8.38
2022-10-23T02:33:41.330Z,8.40
2022-10-23T02:36:44.306Z,8.23
2022-10-23T02:39:49.235Z,7.97
2022-10-23T02:43:01.676Z,7.62
2022-10-23T02:46:26.612Z,7.97
2022-10-23T02:49:51.202Z,7.20
2022-10-23T02:53:06.389Z,7.40
2022-10-23T02:56:25.690Z,7.50
2022-10-23T02:59:51.168Z,7.50
2022-10-23T03:02:59.355Z,7.05
2022-10-23T03:06:03.146Z,7.25
2022-10-23T03:09:09.032Z,7.78
2022-10-23T03:12:11.717Z,6.87
2022-10-23T03:15:16.513Z,6.97
2022-10-23T03:18:19.150Z,7.62
2022-10-23T03:21:22.784Z,6.65
2022-10-23T03:24:29.413Z,6.90
2022-10-23T03:27:32.617Z,7.20
2022-10-23T03:30:36.068Z,7.03
2022-10-23T03:33:39.094Z,6.10
2022-10-23T03:36:41.978Z,5.95
2022-10-23T03:39:45.152Z,5.95
2022-10-23T03:42:47.837Z,6.07
2022-10-23T03:45:52.204Z,5.37
2022-10-23T03:48:58.189Z,5.07
2022-10-23T03:52:01.174Z,5.43
2022-10-23T03:55:04.685Z,5.72
2022-10-23T03:58:07.687Z,5.10
2022-10-23T04:01:10.558Z,5.40
2022-10-23T04:04:14.448Z,6.10
2022-10-23T04:07:17.259Z,5.95
2022-10-23T04:10:20.405Z,5.62
2022-10-23T04:13:23.044Z,5.03
2022-10-23T04:16:27.075Z,5.25
2022-10-23T04:19:29.730Z,5.37
2022-10-23T04:22:32.681Z,4.93
2022-10-23T04:25:36.161Z,5.18
2022-10-23T04:28:40.048Z,4.70
2022-10-23T04:31:42.777Z,5.35
2022-10-23T04:34:45.723Z,5.28
2022-10-23T04:37:48.549Z,6.30
2022-10-23T04:40:51.582Z,5.22
2022-10-23T04:43:55.397Z,4.43
2022-10-23T04:46:58.453Z,4.05
2022-10-23T04:50:01.591Z,4.37
2022-10-23T04:53:10.811Z,5.00
2022-10-23T04:56:15.648Z,6.00
2022-10-23T04:59:20.856Z,4.80
2022-10-23T05:02:24.468Z,4.18
2022-10-23T05:05:27.627Z,4.78
2022-10-23T05:08:30.965Z,4.53
2022-10-23T05:11:34.159Z,4.78
2022-10-23T05:14:39.721Z,4.78
2022-10-23T05:17:46.330Z,4.43
2022-10-23T05:20:54.376Z,4.50
2022-10-23T05:23:57.848Z,4.80
2022-10-23T05:27:00.513Z,4.62
2022-10-23T05:30:06.247Z,4.97
2022-10-23T05:33:11.251Z,5.62
2022-10-23T05:36:15.695Z,4.18
2022-10-23T05:39:20.117Z,5.68
2022-10-23T05:42:23.697Z,6.65
2022-10-23T05:45:27.373Z,6.57
2022-10-23T05:48:37.687Z,5.78
2022-10-23T05:51:42.026Z,6.03
2022-10-23T05:54:45.121Z,5.82
2022-10-23T05:57:48.813Z,5.43
2022-10-23T06:00:52.003Z,5.53
2022-10-23T06:03:59.676Z,6.15
2022-10-23T06:07:04.825Z,5.85
2022-10-23T06:10:08.300Z,7.10
2022-10-23T06:13:11.330Z,9.10
2022-10-23T06:16:15.943Z,9.82
2022-10-23T06:19:18.837Z,10.27
2022-10-23T06:22:23.042Z,11.30
2022-10-23T06:25:26.081Z,12.73
2022-10-23T06:28:29.560Z,13.82
2022-10-23T06:31:32.286Z,14.65
2022-10-23T06:34:35.210Z,10.68
2022-10-23T06:37:38.467Z,7.97
2022-10-23T06:40:42.223Z,11.02
2022-10-23T06:43:48.133Z,9.15
2022-10-23T06:46:51.721Z,9.75
2022-10-23T06:49:56.744Z,8.68
2022-10-23T06:52:59.780Z,7.40
2022-10-23T06:56:05.312Z,6.78
2022-10-23T06:59:09.859Z,6.47
2022-10-23T07:02:13.025Z,6.50
2022-10-23T07:05:16.110Z,6.60
2022-10-23T07:08:19.014Z,5.50
2022-10-23T07:11:22.368Z,5.50
2022-10-23T07:14:25.173Z,5.35
2022-10-23T07:17:31.062Z,5.93
2022-10-23T07:20:34.397Z,5.32
2022-10-23T07:23:37.621Z,4.87
2022-10-23T07:26:41.554Z,5.07
2022-10-23T07:29:44.535Z,4.95
2022-10-23T07:32:47.240Z,5.03
2022-10-23T07:35:53.244Z,5.37
2022-10-23T07:38:57.623Z,5.55
2022-10-23T07:42:03.818Z,5.07
2022-10-23T07:45:08.703Z,5.03
2022-10-23T07:48:12.421Z,5.55
2022-10-23T07:51:16.551Z,5.25
2022-10-23T07:54:20.014Z,5.15
2022-10-23T07:57:24.205Z,5.20
2022-10-23T08:00:29.361Z,5.18
2022-10-23T08:03:33.803Z,5.62
2022-10-23T08:06:36.866Z,4.90
2022-10-23T08:09:40.186Z,6.90
2022-10-23T08:12:43.914Z,5.62
2022-10-23T08:15:48.907Z,5.57
2022-10-23T08:18:53.304Z,5.32
2022-10-23T08:21:57.333Z,5.47
2022-10-23T08:25:00.119Z,6.37
2022-10-23T08:28:05.558Z,5.37
2022-10-23T08:31:16.034Z,5.78
2022-10-23T08:34:20.941Z,6.35
2022-10-23T08:37:24.096Z,5.25
2022-10-23T08:40:27.947Z,4.97
2022-10-23T08:43:47.025Z,4.68
2022-10-23T08:47:12.113Z,4.82
2022-10-23T08:50:24.258Z,4.95
2022-10-23T08:53:32.950Z,5.10
2022-10-23T08:56:39.437Z,4.85
2022-10-23T08:59:56.382Z,5.00
2022-10-23T09:03:02.902Z,4.93
2022-10-23T09:06:35.535Z,4.72
2022-10-23T09:09:52.497Z,4.55
2022-10-23T09:13:11.793Z,4.82
2022-10-23T09:16:39.409Z,4.97
2022-10-23T09:19:45.187Z,5.25
2022-10-23T09:22:59.010Z,5.28
2022-10-23T09:26:05.266Z,8.02
2022-10-23T09:29:28.873Z,8.35
2022-10-23T09:32:37.865Z,4.62
2022-10-23T09:36:02.331Z,4.57
2022-10-23T09:39:05.327Z,4.22
2022-10-23T09:42:37.529Z,4.57
2022-10-23T09:45:42.563Z,5.68
2022-10-23T09:48:45.694Z,5.05
2022-10-23T09:51:54.106Z,3.42
2022-10-23T09:55:00.344Z,4.10
2022-10-23T09:58:03.401Z,4.05
2022-10-23T10:01:07.855Z,3.25
2022-10-23T10:04:16.127Z,3.12
2022-10-23T10:07:25.299Z,4.85
2022-10-23T10:10:36.117Z,3.65
2022-10-23T10:14:25.021Z,4.10
2022-10-23T10:17:51.283Z,3.42
2022-10-23T10:21:21.242Z,4.18
2022-10-23T10:24:47.153Z,4.12
2022-10-23T10:28:24.996Z,4.50
2022-10-23T10:31:53.078Z,4.70
2022-10-23T10:35:19.341Z,5.87
2022-10-23T10:38:50.810Z,6.97
2022-10-23T10:42:46.767Z,9.05
2022-10-23T11:02:14.543Z,20.95
2022-10-23T11:05:39.043Z,20.33
2022-10-23T11:09:29.184Z,19.62
2022-10-23T11:12:53.783Z,15.25
2022-10-23T11:16:09.781Z,11.18
2022-10-23T11:19:30.351Z,10.77
2022-10-23T11:22:47.988Z,10.85
2022-10-23T11:26:13.349Z,10.32
2022-10-23T11:29:52.394Z,11.32
2022-10-23T11:33:28.659Z,11.23
2022-10-23T11:36:52.932Z,8.82
2022-10-23T11:40:08.052Z,11.10
2022-10-23T11:43:10.870Z,15.35
2022-10-23T11:46:29.727Z,13.40
2022-10-23T11:49:32.475Z,10.02
2022-10-23T11:52:45.572Z,9.85
2022-10-23T11:56:05.281Z,10.32
2022-10-23T11:59:29.249Z,9.90
2022-10-23T12:02:42.084Z,11.80
2022-10-23T12:05:46.059Z,10.55
2022-10-23T12:08:53.428Z,9.23
2022-10-23T12:12:16.000Z,8.48
2022-10-23T12:15:22.832Z,7.15
2022-10-23T12:18:27.535Z,7.40
2022-10-23T12:21:35.253Z,6.87
2022-10-23T12:24:53.585Z,9.85
2022-10-23T12:28:19.620Z,6.40
2022-10-23T12:31:48.322Z,5.82
2022-10-23T12:35:43.218Z,8.07
2022-10-23T12:38:47.410Z,7.22
2022-10-23T12:41:50.188Z,5.53
2022-10-23T12:44:59.224Z,7.35
2022-10-23T12:48:02.193Z,8.27
2022-10-23T12:51:05.492Z,10.77
2022-10-23T12:54:20.027Z,13.40
2022-10-23T12:57:25.617Z,16.33
2022-10-23T13:00:28.553Z,18.33
2022-10-23T13:03:34.294Z,20.27
2022-10-23T13:06:39.421Z,21.55
2022-10-23T13:09:45.498Z,21.35
2022-10-23T13:13:18.368Z,23.95
2022-10-23T13:16:24.368Z,22.10
2022-10-23T13:19:27.743Z,19.45
2022-10-23T13:22:31.338Z,18.02
2022-10-23T13:25:35.662Z,15.80
2022-10-23T13:28:44.384Z,11.52
2022-10-23T13:31:47.531Z,9.00
2022-10-23T13:35:03.649Z,8.75
2022-10-23T13:38:13.590Z,8.35
2022-10-23T13:41:28.877Z,8.35
2022-10-23T14:15:20.666Z,2.40
2022-10-23T14:18:24.459Z,1.40
2022-10-23T14:21:28.302Z,1.60
2022-10-23T14:24:31.458Z,1.00
2022-10-23T14:27:34.676Z,1.05
2022-10-23T14:30:38.019Z,1.08
2022-10-23T14:33:41.587Z,1.20
2022-10-23T14:36:50.954Z,0.93
2022-10-23T14:40:00.864Z,2.15
2022-10-23T14:43:05.621Z,2.12
2022-10-23T14:46:14.947Z,1.80
2022-10-23T14:49:18.465Z,1.60
2022-10-23T14:52:22.102Z,1.37
2022-10-23T14:55:26.587Z,1.42
2022-10-23T14:58:30.480Z,1.52
2022-10-23T15:01:37.778Z,1.70
2022-10-23T15:04:40.910Z,1.80
2022-10-23T15:07:44.814Z,1.80
2022-10-23T15:10:47.958Z,1.85
2022-10-23T15:13:51.664Z,2.10
2022-10-23T15:16:57.170Z,1.80
2022-10-23T15:20:01.227Z,2.03
2022-10-23T15:23:04.614Z,2.03
2022-10-23T15:26:11.842Z,2.40
2022-10-23T15:29:15.627Z,3.20
2022-10-23T15:32:25.188Z,3.22
2022-10-23T15:38:33.255Z,3.97
2022-10-23T15:42:03.880Z,4.00
2022-10-23T15:49:52.033Z,3.20
2022-10-23T15:52:57.158Z,3.33
2022-10-23T15:56:01.302Z,2.80
2022-10-23T15:59:05.074Z,3.28
2022-10-23T16:02:12.880Z,2.97
2022-10-23T16:05:17.585Z,3.08
2022-10-23T16:08:22.724Z,4.05
2022-10-23T16:11:29.066Z,3.72
2022-10-23T16:14:32.714Z,3.70
2022-10-23T16:17:38.350Z,4.00
2022-10-23T16:20:41.713Z,3.75
2022-10-23T16:23:46.833Z,4.07
2022-10-23T16:26:53.239Z,3.90
2022-10-23T16:29:56.703Z,3.90
2022-10-23T16:32:59.727Z,4.12
2022-10-23T16:36:39.217Z,4.50
2022-10-23T16:39:46.337Z,4.70
2022-10-23T16:42:52.280Z,4.43
2022-10-23T16:46:01.570Z,5.00
2022-10-23T16:49:08.138Z,4.82
2022-10-23T16:52:11.736Z,3.87
2022-10-23T16:55:33.407Z,4.15
2022-10-23T16:58:45.599Z,4.70
2022-10-23T17:01:48.964Z,5.40
2022-10-23T17:04:54.808Z,4.70
2022-10-23T17:08:07.114Z,5.37
2022-10-23T17:11:25.832Z,5.65
2022-10-23T17:14:29.453Z,5.20
2022-10-23T17:17:36.751Z,5.20
2022-10-23T17:20:41.569Z,4.70
2022-10-23T17:23:45.312Z,5.00
2022-10-23T17:26:48.620Z,4.80
2022-10-23T17:29:52.094Z,4.62
2022-10-23T17:32:58.240Z,6.03
2022-10-23T17:36:05.904Z,6.05
2022-10-23T17:42:29.636Z,5.00
2022-10-23T17:45:35.744Z,4.70
2022-10-23T17:48:56.999Z,4.32
2022-10-23T17:52:00.062Z,4.18
2022-10-23T17:55:03.671Z,4.05
2022-10-23T17:58:08.068Z,4.80
2022-10-23T18:01:27.600Z,4.18
2022-10-23T18:04:34.750Z,4.25
2022-10-23T18:10:49.019Z,5.72
2022-10-23T18:13:56.689Z,4.95
2022-10-23T18:17:01.032Z,4.65
2022-10-23T18:20:04.741Z,5.00
2022-10-23T18:23:25.570Z,4.87
2022-10-23T18:26:31.283Z,5.15
2022-10-23T18:29:34.782Z,6.37
2022-10-23T18:32:48.617Z,8.55
2022-10-23T18:35:52.799Z,6.55
2022-10-23T18:42:23.467Z,6.80
2022-10-23T18:45:27.014Z,6.53
2022-10-23T18:48:34.369Z,6.62
2022-10-23T18:51:46.431Z,7.00
2022-10-23T18:54:49.690Z,6.30
2022-10-23T19:01:10.899Z,6.95
2022-10-23T19:07:36.160Z,7.05
2022-10-23T19:10:43.529Z,7.95
2022-10-23T19:13:47.012Z,7.60
2022-10-23T19:17:13.697Z,8.30
2022-10-23T19:20:19.970Z,8.77
2022-10-23T19:23:23.056Z,9.52
2022-10-23T19:26:27.250Z,10.70
2022-10-23T19:29:31.729Z,10.73
2022-10-23T19:32:35.120Z,10.32
2022-10-23T19:35:37.970Z,10.00
2022-10-23T19:38:42.442Z,9.00
2022-10-23T19:41:46.160Z,8.88
2022-10-23T19:44:49.452Z,9.13
2022-10-23T19:47:52.367Z,8.93
2022-10-23T19:50:55.668Z,10.80
2022-10-23T19:53:59.000Z,9.40
2022-10-23T19:57:02.557Z,8.85
2022-10-23T20:00:07.442Z,8.52
2022-10-23T20:03:12.842Z,8.05
2022-10-23T20:06:26.478Z,7.35
2022-10-23T20:09:30.642Z,7.80
2022-10-23T20:12:33.832Z,7.93
2022-10-23T20:15:38.005Z,7.68
2022-10-23T20:18:41.110Z,7.12
2022-10-23T20:21:47.041Z,7.20
2022-10-23T20:24:50.667Z,8.30
2022-10-23T20:27:53.489Z,8.15
2022-10-23T20:30:56.845Z,8.63
2022-10-23T20:33:59.868Z,7.85
2022-10-23T20:37:03.584Z,7.65
2022-10-23T20:40:07.046Z,8.35
2022-10-23T20:43:10.452Z,8.43
2022-10-23T20:46:13.589Z,8.60
2022-10-23T20:49:17.633Z,8.18
2022-10-23T20:52:22.079Z,7.82
2022-10-23T20:55:27.687Z,8.30
2022-10-23T20:58:30.385Z,8.43
2022-10-23T21:01:34.869Z,7.28
2022-10-23T21:04:37.508Z,8.13
2022-10-23T21:07:40.409Z,8.65
2022-10-23T21:10:47.235Z,8.52
2022-10-23T21:13:50.130Z,9.10
2022-10-23T21:16:52.804Z,9.85
2022-10-23T21:19:56.320Z,9.98
2022-10-23T21:22:58.906Z,11.05
2022-10-23T21:26:06.337Z,10.07
2022-10-23T21:29:18.489Z,10.15
2022-10-23T21:32:22.529Z,10.65
2022-10-23T21:35:30.009Z,9.70
2022-10-23T21:38:33.486Z,10.45
2022-10-23T21:41:36.064Z,10.10
2022-10-23T21:44:42.165Z,10.52
2022-10-23T21:47:45.166Z,10.77
2022-10-23T21:53:57.059Z,10.15
2022-10-23T21:57:00.048Z,11.05
2022-10-23T22:00:02.741Z,11.55
2022-10-23T22:03:15.017Z,14.18
2022-10-23T22:06:24.838Z,15.30
2022-10-23T22:09:27.526Z,14.05
2022-10-23T22:12:30.403Z,15.07
2022-10-23T22:15:32.902Z,13.13
2022-10-23T22:18:36.746Z,12.85
2022-10-23T22:21:39.317Z,13.00
2022-10-23T22:24:42.118Z,13.05
2022-10-23T22:27:44.822Z,14.02
2022-10-23T22:30:47.883Z,13.02
2022-10-23T22:33:51.173Z,12.18
2022-10-23T22:36:54.694Z,12.60
2022-10-23T22:39:57.353Z,12.88
2022-10-23T22:43:00.178Z,12.13
2022-10-23T22:46:14.310Z,12.32
2022-10-23T22:49:17.137Z,12.30
2022-10-23T22:52:19.698Z,11.52
2022-10-23T22:55:22.538Z,12.77
2022-10-23T22:58:26.108Z,12.02
2022-10-23T23:01:36.883Z,12.15
2022-10-23T23:04:39.683Z,11.35
2022-10-23T23:07:45.757Z,12.20
2022-10-23T23:10:58.117Z,11.98
2022-10-23T23:14:01.735Z,12.30
2022-10-23T23:17:05.254Z,12.45
2022-10-23T23:20:08.780Z,12.10
2022-10-23T23:23:12.510Z,12.30
2022-10-23T23:26:16.318Z,11.95
2022-10-23T23:29:19.596Z,10.77
